Time;durP1;ratioP1;P1;durP2;ratioP2;P2;SDS_P1;SDS_P2;PMS_P1;PMS_P2;Temp;Humidity;BMP_temperature;BMP_pressure;BME280_temperature;BME280_humidity;BME280_pressure;Samples;Min_cycle;Max_cycle;Signal;HPM_P1;HPM_P2
2022/01/05 00:00:35;;;;;;;1999.90;999.90;;;;;;;4.18;85.28;94311.75;5062566;28;20182;-79
2022/01/05 00:03:01;;;;;;;1999.90;999.90;;;;;;;4.27;85.10;94319.44;5063577;28;20186;-80
2022/01/05 00:05:26;;;;;;;1999.90;999.90;;;;;;;4.28;85.61;94315.84;5057816;28;20170;-79
2022/01/05 00:07:52;;;;;;;1999.90;999.90;;;;;;;4.32;86.25;94323.13;5050990;28;20203;-79
2022/01/05 00:10:18;;;;;;;1999.90;999.90;;;;;;;4.19;85.61;94299.53;5063333;28;20647;-80
2022/01/05 00:12:43;;;;;;;1999.90;999.90;;;;;;;4.25;85.37;94311.00;5061054;28;20178;-79
2022/01/05 00:15:09;;;;;;;1999.90;999.90;;;;;;;4.12;85.04;94312.50;5061141;28;20244;-79
2022/01/05 00:17:35;;;;;;;1999.90;999.90;;;;;;;3.98;85.48;94289.88;5061069;28;20175;-79
2022/01/05 00:20:01;;;;;;;1999.90;999.90;;;;;;;4.07;85.55;94314.00;5062772;28;20163;-79
2022/01/05 00:22:27;;;;;;;1999.90;999.90;;;;;;;3.98;86.70;94296.91;5063106;28;20170;-79
2022/01/05 00:24:52;;;;;;;1999.90;999.90;;;;;;;4.08;85.93;94316.44;5063390;28;20227;-79
2022/01/05 00:27:18;;;;;;;1999.90;999.90;;;;;;;4.14;85.90;94313.13;5063464;28;20261;-79
2022/01/05 00:29:43;;;;;;;1999.90;999.90;;;;;;;4.16;85.55;94313.72;5060811;28;20569;-79
2022/01/05 00:32:09;;;;;;;1999.90;999.90;;;;;;;4.04;85.18;94289.16;5060865;28;20226;-79
2022/01/05 00:34:35;;;;;;;1999.90;999.90;;;;;;;4.07;85.50;94311.41;5058392;28;20186;-79
2022/01/05 00:37:00;;;;;;;1999.90;999.90;;;;;;;4.14;85.06;94327.94;5058509;28;20186;-79
2022/01/05 00:39:26;;;;;;;1999.90;999.90;;;;;;;4.15;85.69;94327.72;5060774;28;20170;-79
2022/01/05 00:41:51;;;;;;;1999.90;999.90;;;;;;;4.09;85.41;94312.84;5060740;28;20179;-79
2022/01/05 00:44:18;;;;;;;1999.90;999.90;;;;;;;4.03;85.56;94316.19;5059383;28;20175;-79
2022/01/05 00:46:44;;;;;;;1999.90;999.90;;;;;;;3.90;85.90;94310.81;5061431;28;20186;-79
2022/01/05 00:49:09;;;;;;;1999.90;999.90;;;;;;;4.00;85.92;94320.94;5062871;28;20206;-80
2022/01/05 00:51:35;;;;;;;1999.90;999.90;;;;;;;3.98;85.30;94315.16;5062957;28;20183;-79
2022/01/05 00:54:00;;;;;;;1999.90;999.90;;;;;;;3.70;85.64;94297.59;5063221;28;20175;-79
2022/01/05 00:56:26;;;;;;;1999.90;999.90;;;;;;;3.73;86.59;94292.03;5063030;28;20262;-79
2022/01/05 00:58:51;;;;;;;1999.90;999.90;;;;;;;3.64;86.89;94287.91;5067167;28;20196;-79
2022/01/05 01:01:16;;;;;;;1999.90;999.90;;;;;;;3.82;86.86;94305.72;5066849;28;20662;-79
2022/01/05 01:03:42;;;;;;;1999.90;999.90;;;;;;;3.83;86.45;94299.53;5066506;28;20174;-79
2022/01/05 01:06:07;;;;;;;1999.90;999.90;;;;;;;3.84;86.16;94290.75;5065913;28;20181;-79
2022/01/05 01:08:32;;;;;;;1999.90;999.90;;;;;;;3.80;86.28;94292.13;5067554;28;20186;-79
2022/01/05 01:10:58;;;;;;;1999.90;999.90;;;;;;;3.70;86.23;94291.59;5066736;28;20178;-79
2022/01/05 01:13:24;;;;;;;1999.90;999.90;;;;;;;3.67;86.06;94287.56;5066632;28;20170;-79
2022/01/05 01:15:51;;;;;;;1999.90;999.90;;;;;;;3.61;86.50;94266.66;5064458;28;20217;-79
2022/01/05 01:18:17;;;;;;;1999.90;999.90;;;;;;;3.75;86.50;94303.06;5063539;28;21054;-79
2022/01/05 01:20:43;;;;;;;1999.90;999.90;;;;;;;3.74;87.16;94311.84;5064342;28;20665;-79
2022/01/05 01:23:09;;;;;;;1999.90;999.90;;;;;;;3.66;86.63;94290.34;5064306;28;20266;-79
2022/01/05 01:25:34;;;;;;;1999.90;999.90;;;;;;;3.77;86.43;94293.28;5066134;28;20175;-79
2022/01/05 01:28:00;;;;;;;1999.90;999.90;;;;;;;3.83;87.30;94293.53;5066256;28;20194;-79
2022/01/05 01:30:27;;;;;;;1999.90;999.90;;;;;;;3.70;86.91;94266.38;5066307;28;20300;-80
2022/01/05 01:32:53;;;;;;;1999.90;999.90;;;;;;;3.68;87.04;94286.56;5064330;28;20738;-79
2022/01/05 01:35:18;;;;;;;1999.90;999.90;;;;;;;3.66;87.00;94270.31;5063879;28;20182;-79
2022/01/05 01:37:44;;;;;;;1999.90;999.90;;;;;;;3.79;86.78;94287.91;5055212;28;20155;-79
2022/01/05 01:40:10;;;;;;;1999.90;999.90;;;;;;;3.72;86.32;94287.00;5064064;28;20177;-80
2022/01/05 01:42:36;;;;;;;1999.90;999.90;;;;;;;3.68;86.48;94268.34;5063002;28;20569;-79
2022/01/05 01:45:03;;;;;;;1999.90;999.90;;;;;;;3.87;85.92;94282.59;5066556;28;20183;-79
2022/01/05 01:47:29;;;;;;;1999.90;999.90;;;;;;;3.86;85.49;94280.16;5070207;28;20174;-79
2022/01/05 01:49:54;;;;;;;1999.90;999.90;;;;;;;3.72;86.69;94248.75;5063957;28;20195;-79
2022/01/05 01:52:20;;;;;;;1999.90;999.90;;;;;;;3.66;86.81;94230.47;5064430;28;20552;-79
2022/01/05 01:54:46;;;;;;;1999.90;999.90;;;;;;;3.90;86.66;94289.19;5070456;28;20301;-79
2022/01/05 01:57:12;;;;;;;1999.90;999.90;;;;;;;3.86;85.72;94280.16;5058358;28;20220;-79
2022/01/05 01:59:42;;;;;;;1097.77;513.07;;;;;;;3.72;85.56;94263.56;5065448;28;20175;-79
2022/01/05 02:02:08;;;;;;;749.97;326.03;;;;;;;3.73;85.53;94267.78;5063835;28;20171;-79
2022/01/05 02:04:35;;;;;;;1526.37;749.63;;;;;;;3.73;85.75;94265.19;5065854;28;20181;-79
2022/01/05 02:07:02;;;;;;;1999.90;999.90;;;;;;;3.68;86.31;94275.34;5067552;28;20181;-79
2022/01/05 02:09:29;;;;;;;1519.37;718.20;;;;;;;3.52;85.96;94247.75;5062483;28;20738;-79
2022/01/05 02:11:55;;;;;;;1412.07;686.90;;;;;;;3.64;85.70;94272.28;5065191;28;20641;-79
2022/01/05 02:14:20;;;;;;;1999.90;999.90;;;;;;;3.48;85.57;94251.69;5065300;28;20177;-79
2022/01/05 02:16:47;;;;;;;1999.90;999.90;;;;;;;3.61;85.96;94271.88;5067731;28;20182;-79
2022/01/05 02:19:13;;;;;;;1999.90;999.90;;;;;;;3.48;85.83;94263.91;5071971;28;20706;-79
2022/01/05 02:21:38;;;;;;;1999.90;999.90;;;;;;;3.48;86.33;94266.50;5061830;28;20253;-79
2022/01/05 02:24:06;;;;;;;1999.90;999.90;;;;;;;3.34;86.12;94247.34;5060269;28;20258;-79
2022/01/05 02:26:32;;;;;;;1999.90;999.90;;;;;;;3.45;86.31;94262.50;5069727;28;20170;-79
2022/01/05 02:28:58;;;;;;;1999.90;999.90;;;;;;;3.50;86.68;94267.94;5055240;28;20237;-79
2022/01/05 02:31:26;;;;;;;1999.90;999.90;;;;;;;3.33;86.70;94245.72;5063374;28;20218;-79
2022/01/05 02:33:52;;;;;;;1999.90;999.90;;;;;;;3.38;86.63;94254.56;5062946;28;20910;-79
2022/01/05 02:36:20;;;;;;;1999.90;999.90;;;;;;;3.48;86.37;94262.09;5062885;28;20182;-79
2022/01/05 02:38:47;;;;;;;1999.90;999.90;;;;;;;3.55;86.03;94247.38;5071955;28;20581;-79
2022/01/05 02:41:13;;;;;;;1999.90;999.90;;;;;;;3.49;86.15;94248.13;5063058;28;20170;-79
2022/01/05 02:43:41;;;;;;;1999.90;999.90;;;;;;;3.47;86.97;94259.69;5062865;28;20183;-79
2022/01/05 02:46:12;;;;;;;1999.90;999.90;;;;;;;3.36;86.45;94259.19;5063268;28;20178;-79
2022/01/05 02:48:38;;;;;;;1999.90;999.90;;;;;;;3.24;86.35;94241.59;5073925;28;20536;-79
2022/01/05 02:51:05;;;;;;;1999.90;999.90;;;;;;;3.21;86.58;94219.38;5064957;28;20179;-79
2022/01/05 02:53:30;;;;;;;1999.90;999.90;;;;;;;3.23;86.33;94217.41;5074348;28;20162;-79
2022/01/05 02:55:59;;;;;;;1999.90;999.90;;;;;;;3.42;86.16;94242.03;5063365;28;20190;-79
2022/01/05 02:58:25;;;;;;;1999.90;999.90;;;;;;;3.25;85.81;94246.63;5064794;28;20652;-79
2022/01/05 03:00:51;;;;;;;1999.90;999.90;;;;;;;3.36;86.34;94250.56;5064723;28;20217;-79
2022/01/05 03:03:16;;;;;;;1999.90;999.90;;;;;;;3.27;86.16;94247.25;5064629;28;21001;-79
2022/01/05 03:05:42;;;;;;;1999.90;999.90;;;;;;;3.27;85.88;94255.06;5063407;28;20182;-79
2022/01/05 03:08:07;;;;;;;1999.90;999.90;;;;;;;3.27;86.06;94249.88;5064636;28;20282;-79
2022/01/05 03:10:36;;;;;;;1999.90;999.90;;;;;;;3.31;86.43;94247.69;5065411;28;20536;-79
2022/01/05 03:13:02;;;;;;;1999.90;999.90;;;;;;;3.09;86.40;94215.63;5062387;28;20203;-79
2022/01/05 03:15:28;;;;;;;1580.97;766.33;;;;;;;3.13;86.26;94229.06;5065545;28;20221;-79
2022/01/05 03:17:53;;;;;;;1999.90;999.90;;;;;;;3.20;86.23;94241.16;5059350;28;20186;-79
2022/01/05 03:20:20;;;;;;;1999.90;999.90;;;;;;;3.17;86.65;94244.13;5060842;28;20174;-79
2022/01/05 03:22:46;;;;;;;833.90;256.40;;;;;;;3.15;86.63;94229.69;5063048;28;20174;-79
2022/01/05 03:25:16;;;;;;;1530.30;715.70;;;;;;;3.22;85.96;94244.38;5060718;28;20179;-79
2022/01/05 03:27:43;;;;;;;670.63;166.00;;;;;;;2.82;86.12;94178.09;5060433;28;20171;-79
2022/01/05 03:30:10;;;;;;;1141.03;385.50;;;;;;;3.06;85.60;94221.19;5069499;28;20213;-79
2022/01/05 03:32:47;;;;;;;836.67;364.03;;;;;;;3.01;85.70;94221.72;5064745;28;20229;-79
2022/01/05 03:35:12;;;;;;;1507.83;716.17;;;;;;;3.19;86.05;94236.97;5064170;28;20170;-79
2022/01/05 03:37:37;;;;;;;1498.80;710.93;;;;;;;2.99;85.85;94215.91;5071268;28;20185;-80
2022/01/05 03:40:04;;;;;;;766.27;284.87;;;;;;;3.03;86.03;94224.13;5061863;28;20193;-79
2022/01/05 03:42:30;;;;;;;1062.73;424.13;;;;;;;3.08;85.96;94232.22;5061672;28;20232;-79
2022/01/05 03:44:55;;;;;;;1098.30;478.17;;;;;;;2.82;85.38;94182.47;5061798;28;20174;-79
2022/01/05 03:47:21;;;;;;;1156.50;496.67;;;;;;;3.09;85.65;94238.22;5060602;28;20185;-79
2022/01/05 03:49:46;;;;;;;1828.67;846.23;;;;;;;3.03;85.89;94231.94;5064122;28;20253;-80
2022/01/05 03:52:11;;;;;;;1999.90;999.90;;;;;;;3.01;86.14;94226.94;5068832;28;20182;-80
2022/01/05 03:54:37;;;;;;;1089.53;398.30;;;;;;;2.65;86.08;94181.84;5063674;28;20249;-80
2022/01/05 03:57:03;;;;;;;972.57;373.00;;;;;;;2.93;85.76;94234.81;5063761;28;20645;-80
2022/01/05 03:59:28;;;;;;;796.47;222.83;;;;;;;2.98;86.71;94235.09;5063677;28;20186;-80
2022/01/05 04:01:54;;;;;;;1999.90;999.90;;;;;;;2.99;86.21;94228.91;5063486;28;20163;-80
2022/01/05 04:04:19;;;;;;;1775.40;813.53;;;;;;;2.99;86.18;94222.88;5059522;28;20178;-80
2022/01/05 04:06:45;;;;;;;1999.90;999.90;;;;;;;3.01;85.68;94221.72;5059300;28;20179;-80
2022/01/05 04:09:11;;;;;;;1591.03;730.33;;;;;;;3.09;84.97;94225.22;5062835;28;20227;-79
2022/01/05 04:11:36;;;;;;;1999.90;737.53;;;;;;;2.97;85.54;94217.88;5059865;28;20163;-80
2022/01/05 04:14:02;;;;;;;1999.90;700.90;;;;;;;2.94;85.74;94214.84;5064157;28;20186;-80
2022/01/05 04:16:27;;;;;;;1697.27;464.10;;;;;;;2.90;86.01;94203.97;5061511;28;20167;-80
2022/01/05 04:18:52;;;;;;;1342.77;592.27;;;;;;;2.89;86.02;94201.56;5063653;28;20178;-80
2022/01/05 04:21:18;;;;;;;1158.03;507.60;;;;;;;3.01;85.47;94224.34;5063091;28;20645;-80
2022/01/05 04:23:43;;;;;;;1075.03;530.60;;;;;;;2.91;85.05;94197.00;5058526;28;20757;-80
2022/01/05 04:26:08;;;;;;;982.07;507.67;;;;;;;2.84;84.86;94185.72;5063411;28;20178;-80
2022/01/05 04:28:35;;;;;;;1067.20;544.50;;;;;;;2.91;84.81;94204.78;5065132;28;20202;-80
2022/01/05 04:31:00;;;;;;;1496.23;624.20;;;;;;;2.87;85.45;94180.94;5059759;28;20219;-80
2022/01/05 04:33:26;;;;;;;1999.90;999.90;;;;;;;2.93;86.29;94215.81;5061452;28;20191;-80
2022/01/05 04:35:51;;;;;;;1137.47;346.00;;;;;;;2.82;86.42;94204.06;5056440;28;20174;-80
2022/01/05 04:38:17;;;;;;;1999.90;999.90;;;;;;;2.71;85.93;94185.53;5057705;28;20175;-80
2022/01/05 04:40:44;;;;;;;1418.70;721.37;;;;;;;2.76;86.10;94194.41;5052080;28;20158;-80
2022/01/05 04:43:09;;;;;;;1293.30;695.33;;;;;;;2.69;86.85;94187.50;5051703;28;20257;-83
2022/01/05 04:45:35;;;;;;;1999.90;782.53;;;;;;;2.70;86.90;94196.91;5051887;28;20246;-80
2022/01/05 04:48:00;;;;;;;1999.90;851.60;;;;;;;2.86;86.56;94215.72;5057967;28;20220;-80
2022/01/05 04:50:25;;;;;;;1999.90;781.90;;;;;;;2.85;87.61;94215.91;5059065;28;20170;-80
2022/01/05 04:52:52;;;;;;;1999.90;999.90;;;;;;;3.01;87.62;94223.53;5064314;28;20175;-83
2022/01/05 04:55:17;;;;;;;1999.90;999.90;;;;;;;2.51;87.71;94154.88;5059893;28;20278;-84
2022/01/05 04:57:43;;;;;;;1999.90;999.90;;;;;;;2.68;87.16;94193.69;5058001;28;20266;-80
2022/01/05 05:00:09;;;;;;;1209.93;463.97;;;;;;;2.98;86.78;94235.09;5050355;28;20174;-82
2022/01/05 05:02:34;;;;;;;1999.90;999.90;;;;;;;2.84;86.50;94214.28;5054350;28;20175;-82
2022/01/05 05:04:59;;;;;;;1564.90;830.20;;;;;;;2.69;86.54;94195.28;5060174;28;20562;-82
2022/01/05 05:07:25;;;;;;;1999.90;999.90;;;;;;;2.80;86.71;94236.41;5052047;28;20178;-81
2022/01/05 05:09:59;;;;;;;677.90;200.67;;;;;;;2.83;86.56;94252.47;5061567;28;20199;-81
2022/01/05 05:12:24;;;;;;;1999.90;999.90;;;;;;;2.50;86.86;94200.03;5059834;28;20220;-81
2022/01/05 05:14:50;;;;;;;1999.90;999.90;;;;;;;2.51;87.30;94199.03;5050332;28;20174;-81
2022/01/05 05:17:16;;;;;;;1528.13;730.97;;;;;;;2.85;86.46;94252.28;5051593;28;20171;-81
2022/01/05 05:19:41;;;;;;;1999.90;999.90;;;;;;;2.82;86.83;94260.44;5057206;28;20279;-81
2022/01/05 05:22:07;;;;;;;1536.00;763.93;;;;;;;2.72;86.46;94255.50;5062242;28;20253;-81
2022/01/05 05:24:32;;;;;;;1999.90;999.90;;;;;;;2.61;87.25;94267.13;5063978;28;20189;-81
2022/01/05 05:26:57;;;;;;;1999.90;999.90;;;;;;;2.51;87.97;94237.19;5067369;28;20185;-81
2022/01/05 05:29:23;;;;;;;1999.90;999.90;;;;;;;2.50;87.36;94239.00;5060276;28;20214;-81
2022/01/05 05:31:48;;;;;;;1999.90;999.90;;;;;;;2.67;87.42;94257.03;5061794;28;20532;-82
2022/01/05 05:34:14;;;;;;;1999.90;999.90;;;;;;;2.58;87.50;94254.50;5053659;28;20159;-80
2022/01/05 05:36:39;;;;;;;1999.90;999.90;;;;;;;2.50;87.50;94272.75;5062458;28;20171;-81
2022/01/05 05:39:04;;;;;;;1999.90;999.90;;;;;;;2.57;87.51;94272.88;5064548;28;20169;-81
2022/01/05 05:41:30;;;;;;;1999.90;999.90;;;;;;;2.33;87.21;94215.94;5060539;28;20167;-82
2022/01/05 05:43:55;;;;;;;1999.90;999.90;;;;;;;2.65;86.86;94265.00;5069031;28;20171;-80
2022/01/05 05:46:21;;;;;;;1999.90;999.90;;;;;;;2.62;86.19;94253.16;5066061;28;20249;-80
2022/01/05 05:48:47;;;;;;;1999.90;999.90;;;;;;;2.62;86.97;94263.53;5074896;28;20695;-80
2022/01/05 05:51:12;;;;;;;1999.90;999.90;;;;;;;2.35;86.83;94232.94;5067901;28;20262;-80
2022/01/05 05:53:37;;;;;;;1999.90;999.90;;;;;;;2.61;86.53;94269.72;5063775;28;20244;-80
2022/01/05 05:56:03;;;;;;;1999.90;999.90;;;;;;;2.55;86.39;94249.66;5063721;28;20171;-80
2022/01/05 05:58:28;;;;;;;1999.90;999.90;;;;;;;2.54;86.75;94271.41;5063653;28;20254;-80
2022/01/05 06:00:54;;;;;;;1999.90;999.90;;;;;;;2.44;86.96;94244.06;5054098;28;20270;-81
2022/01/05 06:03:19;;;;;;;1999.90;999.90;;;;;;;2.49;87.44;94250.38;5065771;28;20183;-80
2022/01/05 06:05:45;;;;;;;970.77;491.43;;;;;;;2.34;87.39;94231.34;5065526;28;20163;-80
2022/01/05 06:08:10;;;;;;;1050.03;809.87;;;;;;;2.47;87.42;94260.13;5065610;28;20194;-81
2022/01/05 06:10:35;;;;;;;1999.90;999.90;;;;;;;2.52;87.29;94268.19;5056875;28;20224;-80
2022/01/05 06:13:01;;;;;;;1684.57;834.63;;;;;;;2.42;87.25;94233.84;5065749;28;20166;-80
2022/01/05 06:15:26;;;;;;;1028.80;684.20;;;;;;;2.26;87.03;94239.19;5069351;28;20629;-81
2022/01/05 06:17:54;;;;;;;1999.90;999.90;;;;;;;2.31;87.01;94256.84;5063115;28;20688;-80
2022/01/05 06:20:21;;;;;;;1999.90;999.90;;;;;;;2.40;86.92;94261.00;5065962;28;20174;-81
2022/01/05 06:22:46;;;;;;;1999.90;999.90;;;;;;;2.49;86.96;94271.16;5063247;28;20182;-81
2022/01/05 06:25:12;;;;;;;1999.90;999.90;;;;;;;2.46;86.76;94266.28;5061772;28;20171;-81
2022/01/05 06:27:41;;;;;;;1377.70;819.10;;;;;;;2.50;87.14;94262.38;5053216;28;20207;-81
2022/01/05 06:30:10;;;;;;;1405.80;844.47;;;;;;;2.71;86.92;94295.44;5052846;28;20641;-81
2022/01/05 06:32:41;;;;;;;1999.90;999.90;;;;;;;2.61;86.44;94263.72;5052849;28;20254;-81
2022/01/05 06:35:10;;;;;;;1999.90;999.90;;;;;;;2.86;86.43;94277.28;5054209;28;20162;-80
2022/01/05 06:37:35;;;;;;;1999.90;999.90;;;;;;;2.84;85.66;94276.66;5063160;28;20174;-80
2022/01/05 06:40:01;;;;;;;1999.90;999.90;;;;;;;2.87;86.55;94276.28;5062958;28;20548;-80
2022/01/05 06:42:26;;;;;;;1999.90;999.90;;;;;;;2.73;86.42;94245.91;5062702;28;20198;-81
2022/01/05 06:44:52;;;;;;;1673.67;810.43;;;;;;;3.20;86.50;94274.16;5052686;28;20179;-84
2022/01/05 06:47:18;;;;;;;1999.90;999.90;;;;;;;3.54;85.65;94234.56;5053998;28;20163;-81
2022/01/05 06:49:44;;;;;;;1999.90;999.90;;;;;;;4.21;82.80;94250.66;5053832;28;20190;-80
2022/01/05 06:52:11;;;;;;;628.03;291.27;;;;;;;4.65;79.73;94270.47;5069285;28;20182;-82
2022/01/05 06:54:38;;;;;;;606.93;196.07;;;;;;;4.67;78.80;94273.69;5064527;28;20158;-79
2022/01/05 06:57:04;;;;;;;381.80;137.40;;;;;;;4.79;79.34;94288.63;5064693;28;20167;-80
2022/01/05 06:59:30;;;;;;;241.87;112.10;;;;;;;5.10;80.02;94275.19;5059241;28;20186;-80
2022/01/05 07:01:55;;;;;;;522.37;191.10;;;;;;;5.90;76.74;94292.88;5062043;28;20364;-83
2022/01/05 07:04:21;;;;;;;400.93;138.10;;;;;;;7.18;75.13;94295.19;5061360;28;20202;-83
2022/01/05 07:06:46;;;;;;;226.47;121.53;;;;;;;8.65;67.36;94286.53;5064302;28;20180;-81
2022/01/05 07:09:11;;;;;;;711.23;256.33;;;;;;;9.97;62.92;94282.66;5073679;28;20198;-81
2022/01/05 07:11:38;;;;;;;1810.47;736.17;;;;;;;10.91;59.88;94274.06;5073539;28;20719;-81
2022/01/05 07:14:49;;;;;;;1165.23;569.90;;;;;;;11.50;57.76;94309.94;5063763;28;20166;-81
2022/01/05 07:17:15;;;;;;;304.87;171.70;;;;;;;11.92;55.92;94301.94;5062775;28;20178;-80
2022/01/05 07:19:40;;;;;;;74.03;40.27;;;;;;;12.16;55.67;94306.13;5062977;28;20250;-80
2022/01/05 07:22:06;;;;;;;78.13;38.20;;;;;;;12.48;54.21;94295.91;5073548;28;20257;-81
2022/01/05 07:24:31;;;;;;;81.77;41.80;;;;;;;12.99;53.08;94308.16;5066290;28;20265;-82
2022/01/05 07:26:57;;;;;;;67.57;39.07;;;;;;;13.54;51.65;94305.63;5062190;28;20206;-81
2022/01/05 07:29:22;;;;;;;94.37;50.53;;;;;;;14.32;49.86;94295.78;5061947;28;20202;-81
2022/01/05 07:31:48;;;;;;;82.87;45.20;;;;;;;15.24;47.18;94282.41;5067109;28;20222;-81
2022/01/05 07:34:14;;;;;;;66.43;35.43;;;;;;;16.40;44.92;94294.78;5073003;28;20245;-81
2022/01/05 07:36:39;;;;;;;51.20;29.77;;;;;;;17.50;42.10;94279.25;5072956;28;20170;-79
2022/01/05 07:39:05;;;;;;;44.10;26.83;;;;;;;19.11;39.36;94296.53;5073149;28;20805;-82
2022/01/05 07:41:35;;;;;;;49.40;28.52;;;;;;;20.78;36.19;94293.34;5049938;28;20187;-80
2022/01/05 07:44:01;;;;;;;45.88;27.05;;;;;;;21.78;33.69;94296.41;5051039;28;20179;-78
2022/01/05 07:46:26;;;;;;;48.70;28.63;;;;;;;22.61;31.97;94273.13;5050943;28;20178;-78
2022/01/05 07:48:52;;;;;;;52.05;30.30;;;;;;;23.21;30.21;94291.72;5051150;28;20207;-79
2022/01/05 07:51:18;;;;;;;56.90;36.25;;;;;;;23.69;29.54;94300.84;5049008;28;20250;-78
2022/01/05 07:53:43;;;;;;;55.20;33.45;;;;;;;24.12;29.05;94302.19;5057910;28;20270;-79
2022/01/05 07:56:09;;;;;;;51.38;32.88;;;;;;;24.35;28.01;94292.97;5068939;28;20174;-79
2022/01/05 07:58:35;;;;;;;50.38;29.95;;;;;;;24.58;27.28;94281.00;5069124;28;20265;-79
2022/01/05 08:01:00;;;;;;;53.42;31.92;;;;;;;24.58;27.29;94305.25;5069964;28;20181;-79
2022/01/05 08:03:32;;;;;;;57.65;33.03;;;;;;;24.89;26.74;94274.75;5068482;28;20174;-79
2022/01/05 08:06:01;;;;;;;52.08;32.83;;;;;;;25.29;26.14;94283.53;5069488;28;20178;-79
2022/01/05 08:08:27;;;;;;;46.83;30.88;;;;;;;25.24;26.32;94300.66;5070193;28;20340;-79
2022/01/05 08:10:52;;;;;;;48.13;31.17;;;;;;;24.75;27.06;94294.53;5053249;28;20257;-79
2022/01/05 08:13:18;;;;;;;51.10;33.58;;;;;;;24.56;26.95;94295.91;5050148;28;20610;-79
2022/01/05 08:15:44;;;;;;;50.97;31.38;;;;;;;24.08;27.73;94294.72;5063748;28;20672;-78
2022/01/05 08:18:12;;;;;;;48.45;26.00;;;;;;;23.04;28.74;94278.94;5070364;28;20174;-78
2022/01/05 08:20:37;;;;;;;50.88;24.60;;;;;;;22.26;29.88;94296.09;5061292;28;20244;-78
2022/01/05 08:23:03;;;;;;;54.58;28.33;;;;;;;21.07;30.49;94272.59;5050425;28;20648;-80
2022/01/05 08:25:28;;;;;;;46.17;25.02;;;;;;;20.40;32.12;94297.84;5048861;28;20664;-81
2022/01/05 08:27:54;;;;;;;47.80;25.13;;;;;;;19.85;33.85;94290.09;5050145;28;20178;-81
2022/01/05 08:30:23;;;;;;;45.42;25.42;;;;;;;19.06;34.41;94259.25;5048782;28;20696;-81
2022/01/05 08:32:49;;;;;;;44.13;24.35;;;;;;;18.74;35.62;94258.94;5048811;28;20242;-80
2022/01/05 08:35:20;;;;;;;25.75;16.00;;;;;;;18.56;35.03;94264.88;5050052;28;20626;-81
2022/01/05 08:37:47;;;;;;;30.98;18.00;;;;;;;18.23;36.37;94280.47;5050149;28;20178;-80
2022/01/05 08:40:18;;;;;;;38.35;17.63;;;;;;;17.51;37.06;94262.22;5070080;28;20182;-80
2022/01/05 08:42:44;;;;;;;31.33;17.67;;;;;;;17.08;38.04;94277.69;5070215;28;20244;-80
2022/01/05 08:45:10;;;;;;;37.55;20.38;;;;;;;16.58;39.27;94279.16;5070202;28;20631;-80
2022/01/05 08:47:58;;;;;;;36.17;18.67;;;;;;;16.19;41.00;94285.91;5070015;28;20170;-80
2022/01/05 08:50:26;;;;;;;26.47;15.80;;;;;;;15.75;40.80;94280.91;5070085;28;20229;-80
2022/01/05 08:52:53;;;;;;;32.57;18.83;;;;;;;15.37;41.43;94274.03;5068568;28;20615;-80
2022/01/05 08:55:20;;;;;;;35.57;19.27;;;;;;;14.46;43.79;94273.19;5041223;28;20186;-80
2022/01/05 08:57:46;;;;;;;30.03;16.60;;;;;;;14.32;45.46;94279.91;5049841;28;20178;-80
2022/01/05 09:03:34;;;;;;;37.07;18.93;;;;;;;14.39;44.63;94248.78;5049852;28;20849;-80
2022/01/05 09:06:00;;;;;;;33.70;17.20;;;;;;;14.31;44.41;94271.16;5069068;28;20178;-80
2022/01/05 09:08:25;;;;;;;36.97;17.50;;;;;;;13.88;45.49;94234.13;5069851;28;20239;-80
2022/01/05 09:10:51;;;;;;;29.00;16.77;;;;;;;13.78;45.88;94231.34;5069773;28;20178;-81
2022/01/05 09:13:17;;;;;;;32.87;17.23;;;;;;;13.94;45.91;94270.19;5070271;28;20182;-80
2022/01/05 09:15:42;;;;;;;33.07;16.17;;;;;;;13.54;46.70;94262.53;5069595;28;20177;-80
2022/01/05 09:18:09;;;;;;;34.60;15.97;;;;;;;13.63;47.30;94253.13;5073008;28;20641;-81
2022/01/05 09:20:34;;;;;;;28.37;16.10;;;;;;;13.66;46.91;94220.91;5074055;28;20217;-81
2022/01/05 09:23:02;;;;;;;28.33;14.77;;;;;;;13.65;46.29;94239.66;5073570;28;20206;-80
2022/01/05 09:25:27;;;;;;;25.87;14.13;;;;;;;13.39;46.66;94220.00;5073691;28;20174;-81
2022/01/05 09:27:53;;;;;;;26.67;13.97;;;;;;;13.34;47.25;94214.63;5073368;28;20235;-80
2022/01/05 09:30:19;;;;;;;22.07;12.53;;;;;;;13.46;46.87;94226.72;5073510;28;20178;-80
2022/01/05 09:32:45;;;;;;;30.63;12.53;;;;;;;13.20;47.98;94193.84;5073076;28;20225;-80
2022/01/05 09:35:15;;;;;;;20.33;12.10;;;;;;;13.41;47.15;94231.91;5073452;28;20170;-80
2022/01/05 09:37:52;;;;;;;20.90;12.23;;;;;;;13.10;47.81;94204.25;5073268;28;20177;-80
2022/01/05 09:43:04;;;;;;;21.80;10.40;;;;;;;13.18;48.47;94225.00;5067631;28;20311;-80
2022/01/05 09:45:33;;;;;;;17.93;9.90;;;;;;;13.17;48.73;94209.38;5052031;28;20345;-80
2022/01/05 09:48:02;;;;;;;16.50;8.97;;;;;;;13.21;47.78;94213.97;5053026;28;20179;-80
2022/01/05 09:50:28;;;;;;;20.70;8.77;;;;;;;12.91;48.13;94183.59;5053136;28;20178;-80
2022/01/05 09:52:54;;;;;;;19.63;9.97;;;;;;;12.92;48.76;94191.28;5053159;28;20182;-80
2022/01/05 09:55:20;;;;;;;17.17;8.80;;;;;;;12.99;48.22;94202.47;5052892;28;20201;-80
2022/01/05 09:57:46;;;;;;;17.60;8.80;;;;;;;12.93;48.31;94192.88;5053055;28;20590;-80
2022/01/05 10:00:14;;;;;;;20.83;9.67;;;;;;;12.84;49.38;94202.25;5052926;28;20206;-80
2022/01/05 10:02:41;;;;;;;18.60;9.43;;;;;;;12.66;48.80;94176.88;5052920;28;20652;-80
2022/01/05 10:05:09;;;;;;;15.50;8.73;;;;;;;12.35;49.60;94166.88;5052636;28;20221;-80
2022/01/05 10:07:35;;;;;;;19.17;9.67;;;;;;;12.07;50.50;94186.16;5056856;28;20170;-80
2022/01/05 10:10:00;;;;;;;17.90;10.10;;;;;;;11.71;51.36;94153.81;5072655;28;20212;-80
2022/01/05 10:12:26;;;;;;;17.10;9.47;;;;;;;11.65;52.70;94175.88;5072703;28;20614;-80
2022/01/05 10:14:51;;;;;;;16.50;9.37;;;;;;;11.54;52.60;94138.97;5072641;28;20182;-80
2022/01/05 10:17:32;;;;;;;16.43;8.87;;;;;;;11.71;52.09;94135.38;5072893;28;20235;-80
2022/01/05 10:20:07;;;;;;;17.17;8.13;;;;;;;11.96;51.21;94164.06;5072785;28;20198;-80
2022/01/05 10:22:44;;;;;;;15.27;8.93;;;;;;;11.87;51.52;94172.59;5072690;28;20812;-80
2022/01/05 10:25:20;;;;;;;12.57;7.90;;;;;;;11.82;51.73;94148.78;5072749;28;20265;-81
2022/01/05 10:27:59;;;;;;;14.40;7.57;;;;;;;11.94;51.58;94160.06;5072788;28;20564;-81
2022/01/05 10:30:53;;;;;;;14.70;7.40;;;;;;;11.77;51.94;94151.31;5072192;28;20563;-80
2022/01/05 10:33:28;;;;;;;11.07;7.27;;;;;;;11.29;52.85;94105.03;5063323;28;20734;-81
2022/01/05 10:35:57;;;;;;;13.90;7.20;;;;;;;11.71;53.33;94151.19;5072386;28;20165;-80
2022/01/05 10:38:28;;;;;;;15.03;7.67;;;;;;;11.75;52.38;94153.41;5072459;28;20220;-81
2022/01/05 10:40:53;;;;;;;14.10;8.30;;;;;;;11.45;53.10;94098.22;5071114;28;20235;-81
2022/01/05 10:43:19;;;;;;;15.13;7.67;;;;;;;11.31;52.40;94087.97;5072386;28;20908;-80
2022/01/05 10:45:47;;;;;;;13.67;7.87;;;;;;;11.62;52.70;94134.13;5072293;28;20178;-80
2022/01/05 10:48:14;;;;;;;13.93;7.73;;;;;;;11.64;52.62;94118.09;5072265;28;20190;-80
2022/01/05 10:50:41;;;;;;;16.30;7.33;;;;;;;11.08;53.51;94066.94;5072172;28;20596;-80
2022/01/05 10:53:10;;;;;;;12.27;7.27;;;;;;;11.27;54.42;94104.47;5072223;28;20167;-81
2022/01/05 10:55:45;;;;;;;18.50;8.30;;;;;;;11.37;53.94;94095.97;5072194;28;20180;-80
2022/01/05 10:58:12;;;;;;;14.17;7.60;;;;;;;11.24;54.54;94089.13;5071989;28;20245;-80
2022/01/05 11:00:40;;;;;;;11.40;6.93;;;;;;;11.36;54.28;94108.31;5072132;28;20198;-80
2022/01/05 11:03:24;;;;;;;13.77;8.17;;;;;;;11.47;53.69;94112.78;5070746;28;20189;-81
2022/01/05 11:06:09;;;;;;;16.53;7.63;;;;;;;11.49;53.24;94105.44;5073907;28;20177;-81
2022/01/05 11:08:55;;;;;;;15.80;7.60;;;;;;;11.54;54.74;94116.06;5073851;28;20208;-81
2022/01/05 11:11:41;;;;;;;13.27;7.57;;;;;;;11.61;53.72;94110.66;5073439;28;20158;-80
2022/01/05 11:14:11;;;;;;;14.93;7.13;;;;;;;11.71;53.49;94097.66;5074057;28;20638;-80